D/T METAR WX W/DIR W/SPE G/SPE TEMP DEWP
25/02/20 14:22 EGUW 251422Z 26011KT 9999 FEW020TCU SCT060 BKN250 07/02 Q0996 TEMPO 6000 SHRA BKN022TCU RMK BLU TEMPO WHT W (260°) 12.7mph 7°C 2°C
25/02/20 13:50 EGUW 251350Z 26013KT 9999 SCT028 BKN090 06/01 Q0997 BLU TEMPO 6000 SHRA BKN022TCU RMK BLU TEMPO WHT W (260°) 15.0mph 6°C 1°C
25/02/20 13:23 EGUW 251323Z 27016KT 9999 FEW032 SCT050 BKN250 07/01 Q0997 NOSIG RMK BLU BLU W (270°) 18.4mph 7°C 1°C
25/02/20 12:50 EGUW 251250Z 27015KT 9999 FEW032 BKN250 07/01 Q0998 NOSIG RMK BLU BLU W (270°) 17.3mph 7°C 1°C
25/02/20 12:20 EGUW 251220Z 27016KT 9999 FEW032 BKN250 07/01 Q0998 NOSIG RMK BLU BLU W (270°) 18.4mph 7°C 1°C
25/02/20 11:50 EGUW 251150Z 27020KT 9999 SCT030 BKN250 07/01 Q0998 NOSIG RMK BLU BLU W (270°) 23.0mph 7°C 1°C
25/02/20 11:20 EGUW 251120Z 27017KT 9999 BKN028 07/02 Q0999 NOSIG RMK BLU BLU W (270°) 19.6mph 7°C 2°C
25/02/20 10:50 EGUW 251050Z 27019KT 9999 BKN025 07/02 Q0999 NOSIG RMK BLU BLU W (270°) 21.9mph 7°C 2°C
25/02/20 10:24 EGUW 251024Z 26016KT 9999 BKN020 07/03 Q0999 BECMG FEW020 RMK WHT BECMG BLU W (260°) 18.4mph 7°C 3°C
25/02/20 09:50 EGUW 250950Z 26016KT 9999 BKN018 BKN040 06/03 Q0999 BECMG FEW018 RMK WHT BECMG BLU W (260°) 18.4mph 6°C 3°C
25/02/20 09:21 EGUW 250921Z 25015KT 9999 FEW018 SCT030 05/03 Q0999 NOSIG RMK BLU BLU WSW (250°) 17.3mph 5°C 3°C
25/02/20 08:50 EGUW 250850Z 25012KT 9999 FEW030 BKN040 05/03 Q1000 NOSIG RMK BLU BLU WSW (250°) 13.8mph 5°C 3°C
25/02/20 08:22 EGUW 250822Z 24014KT 9999 FEW030 BKN110 04/02 Q1000 NOSIG RMK BLU BLU WSW (240°) 16.1mph 4°C 2°C
25/02/20 07:50 EGUW 250750Z 24012KT 9999 FEW025 SCT040 BKN100 04/02 Q1000 NOSIG RMK BLU BLU WSW (240°) 13.8mph 4°C 2°C
25/02/20 06:50 EGUW 250650Z AUTO 24009KT 9999 NCD 02/01 Q1000 WSW (240°) 10.4mph 2°C 1°C
25/02/20 05:50 EGUW 250550Z AUTO 25011KT 9999 NCD 03/01 Q1001 WSW (250°) 12.7mph 3°C 1°C
25/02/20 04:50 EGUW 250450Z AUTO 25012KT 9999 NCD 03/02 Q1001 WSW (250°) 13.8mph 3°C 2°C
25/02/20 03:50 EGUW 250350Z AUTO 26010KT 9999 BKN026/// 04/02 Q1001 W (260°) 11.5mph 4°C 2°C
25/02/20 02:50 EGUW 250250Z AUTO 25010KT 9999 SCT048/// 04/02 Q1002 WSW (250°) 11.5mph 4°C 2°C
25/02/20 01:50 EGUW 250150Z AUTO 25010KT 9999 FEW031/// 04/01 Q1002 WSW (250°) 11.5mph 4°C 1°C
25/02/20 00:50 EGUW 250050Z AUTO 26013KT 9999 NCD 05/01 Q1002 W (260°) 15.0mph 5°C 1°C
25/02/20 00:20 EGUW 250020Z 26011KT CAVOK 04/01 Q1002 NOSIG RMK BLU BLU W (260°) 12.7mph 4°C 1°C
24/02/20 23:50 EGUW 242350Z 26016KT CAVOK 05/01 Q1002 NOSIG RMK BLU BLU W (260°) 18.4mph 5°C 1°C
24/02/20 23:20 EGUW 242320Z 26015KT CAVOK 06/02 Q1002 NOSIG RMK BLU BLU W (260°) 17.3mph 6°C 2°C
24/02/20 22:50 EGUW 242250Z 27016KT CAVOK 06/02 Q1002 NOSIG RMK BLU BLU W (270°) 18.4mph 6°C 2°C
24/02/20 22:20 EGUW 242220Z 27016KT CAVOK 06/02 Q1002 NOSIG RMK BLU BLU W (270°) 18.4mph 6°C 2°C
24/02/20 21:50 EGUW 242150Z 28018KT 9999 FEW040 07/02 Q1003 NOSIG RMK BLU BLU W (280°) 20.7mph 7°C 2°C
24/02/20 21:20 EGUW 242120Z 28017G27KT 9999 FEW035 08/03 Q1002 NOSIG RMK BLU BLU W (280°) 19.6mph 31.1mph 8°C 3°C
24/02/20 20:50 EGUW 242050Z 27021KT 9999 FEW035 SCT220 09/05 Q1002 NOSIG RMK BLU BLU W (270°) 24.2mph 9°C 5°C
24/02/20 20:20 EGUW 242020Z 26018G31KT 9999 SCT035 BKN250 09/06 Q1002 NOSIG RMK BLU BLU W (260°) 20.7mph 35.7mph 9°C 6°C
24/02/20 19:50 EGUW 241950Z 26017KT 9999 SCT025 BKN220 09/06 Q1002 NOSIG RMK BLU BLU W (260°) 19.6mph 9°C 6°C
24/02/20 19:20 EGUW 241920Z 26019KT CAVOK 10/06 Q1001 NOSIG RMK BLU BLU W (260°) 21.9mph 10°C 6°C
24/02/20 18:50 EGUW 241850Z 25020KT CAVOK 10/07 Q1001 NOSIG RMK BLU BLU WSW (250°) 23.0mph 10°C 7°C
24/02/20 18:22 EGUW 241822Z 25023KT 9999 FEW022 BKN220 10/07 Q1001 NOSIG RMK BLU BLU WSW (250°) 26.5mph 10°C 7°C
24/02/20 17:50 EGUW 241750Z 25019KT 9999 FEW020 BKN200 11/09 Q1001 NOSIG RMK BLU BLU WSW (250°) 21.9mph 11°C 9°C
24/02/20 17:20 EGUW 241720Z 26019KT 9999 FEW018 SCT023 BKN250 11/09 Q1001 TEMPO SCT030 RMK WHT TEMPO BLU W (260°) 21.9mph 11°C 9°C
24/02/20 16:50 EGUW 241650Z 25020KT 9999 FEW015 SCT018 BKN023 11/09 Q1001 TEMPO SCT030 RMK WHT TEMPO BLU WSW (250°) 23.0mph 11°C 9°C
24/02/20 16:20 EGUW 241620Z 25019KT 9999 FEW014 BKN020 11/09 Q1001 TEMPO SCT030 RMK WHT TEMPO BLU WSW (250°) 21.9mph 11°C 9°C
24/02/20 16:10 EGUW 241610Z 25020KT 9999 FEW014 BKN015 BKN020 11/09 Q1001 TEMPO SCT030 RMK WHT TEMPO BLU WSW (250°) 23.0mph 11°C 9°C
24/02/20 15:20 EGUW 241520Z 24019KT 9999 -DZ BKN014 OVC020 11/09 Q1001 BECMG BKN015 RMK GRN BECMG WHT -DZ WSW (240°) 21.9mph 11°C 9°C
24/02/20 14:50 EGUW 241450Z 23020KT 9999 FEW012 BKN013 OVC020 11/09 Q1001 BECMG BKN015 RMK GRN BECMG WHT SW (230°) 23.0mph 11°C 9°C
24/02/20 14:20 EGUW 241420Z 24021KT 9999 BKN013 OVC020 11/09 Q1002 BECMG BKN015 RMK GRN BECMG WHT WSW (240°) 24.2mph 11°C 9°C
24/02/20 13:50 EGUW 241350Z 24018KT 9999 BKN011 OVC018 11/09 Q1003 RERA BECMG BKN015 RMK GRN BECMG WHT WSW (240°) 20.7mph 11°C 9°C
24/02/20 13:20 EGUW 241320Z 23019KT 9999 RA SCT009 BKN010 OVC016 10/10 Q1003 BECMG BKN015 RMK GRN BECMG WHT RA SW (230°) 21.9mph 10°C 10°C
24/02/20 12:50 EGUW 241250Z 24019KT 9999 RA FEW009 BKN010 BKN016 11/10 Q1003 TEMPO 4000 RA RMK GRN TEMPO GRN RA WSW (240°) 21.9mph 11°C 10°C
24/02/20 12:20 EGUW 241220Z 24018KT 9999 RA FEW009 BKN010 OVC016 11/10 Q1004 TEMPO 4000 RA RMK GRN TEMPO GRN RA WSW (240°) 20.7mph 11°C 10°C
24/02/20 11:50 EGUW 241150Z 23019KT 9999 -RA FEW008 BKN009 OVC014 10/10 Q1004 TEMPO 4000 RA RMK GRN TEMPO GRN -RA SW (230°) 21.9mph 10°C 10°C
24/02/20 11:20 EGUW 241120Z 23017KT 9999 -RADZ FEW009 BKN010 OVC016 10/09 Q1005 TEMPO 4000 RA RMK GRN TEMPO GRN -RA -DZ SW (230°) 19.6mph 10°C 9°C